createdAt,value
2018-02-09T00:00:51.076Z,0
2018-02-09T00:01:51.672Z,0
2018-02-09T00:02:52.265Z,0
2018-02-09T00:03:52.863Z,0
2018-02-09T00:04:53.466Z,0
2018-02-09T00:05:54.046Z,0
2018-02-09T00:06:54.641Z,0
2018-02-09T00:07:55.235Z,0
2018-02-09T00:08:55.821Z,0
2018-02-09T00:09:56.415Z,0
2018-02-09T00:10:57.008Z,0
2018-02-09T00:11:57.606Z,0
2018-02-09T00:12:58.202Z,0
2018-02-09T00:13:58.795Z,0
2018-02-09T00:14:59.392Z,0
2018-02-09T00:15:59.986Z,0
2018-02-09T00:17:00.583Z,0
2018-02-09T00:18:01.178Z,0
2018-02-09T00:19:01.799Z,0
2018-02-09T00:20:02.376Z,0
2018-02-09T00:21:03.028Z,0
2018-02-09T00:22:03.573Z,0
2018-02-09T00:23:04.170Z,0
2018-02-09T00:24:04.759Z,0
2018-02-09T00:25:05.347Z,0
2018-02-09T00:26:05.948Z,0
2018-02-09T00:27:06.545Z,0
2018-02-09T00:28:07.141Z,0
2018-02-09T00:29:07.742Z,0
2018-02-09T00:30:08.334Z,0
2018-02-09T00:31:08.932Z,0
2018-02-09T00:32:09.514Z,0
2018-02-09T00:33:10.109Z,0
2018-02-09T00:34:10.710Z,0
2018-02-09T00:35:11.297Z,0
2018-02-09T00:36:11.896Z,0
2018-02-09T00:37:12.490Z,0
2018-02-09T00:38:13.087Z,0
2018-02-09T00:39:13.680Z,0
2018-02-09T00:40:14.279Z,0
2018-02-09T00:41:14.871Z,0
2018-02-09T00:42:15.460Z,0
2018-02-09T00:43:16.056Z,0
2018-02-09T00:44:16.647Z,0
2018-02-09T00:45:17.251Z,0
2018-02-09T00:46:17.854Z,0
2018-02-09T00:47:18.442Z,0
2018-02-09T00:48:19.039Z,0
2018-02-09T00:49:19.640Z,0
2018-02-09T00:50:20.241Z,0
2018-02-09T00:51:20.841Z,0
2018-02-09T00:52:21.439Z,0
2018-02-09T00:53:22.045Z,0
2018-02-09T00:54:22.640Z,0
2018-02-09T00:55:23.239Z,0
2018-02-09T00:56:23.837Z,0
2018-02-09T00:57:24.431Z,0
2018-02-09T00:58:25.023Z,0
2018-02-09T00:59:25.615Z,0
2018-02-09T01:01:10.424Z,0
2018-02-09T01:02:11.023Z,0
2018-02-09T01:03:11.621Z,0
2018-02-09T01:04:12.208Z,0
2018-02-09T01:05:12.810Z,0
2018-02-09T01:06:13.476Z,0
2018-02-09T01:07:14.048Z,0
2018-02-09T01:08:14.645Z,0
2018-02-09T01:09:15.242Z,0
2018-02-09T01:10:15.862Z,0
2018-02-09T01:11:16.445Z,0
2018-02-09T01:12:17.045Z,0
2018-02-09T01:13:17.641Z,0
2018-02-09T01:14:18.234Z,0
2018-02-09T01:15:18.834Z,0
2018-02-09T01:16:19.430Z,0
2018-02-09T01:17:20.030Z,0
2018-02-09T01:18:20.613Z,0
2018-02-09T01:19:21.198Z,0
2018-02-09T01:20:21.793Z,0
2018-02-09T01:21:22.377Z,0
2018-02-09T01:22:22.966Z,0
2018-02-09T01:23:23.566Z,0
2018-02-09T01:24:24.168Z,0
2018-02-09T01:25:24.751Z,0
2018-02-09T01:26:25.339Z,0
2018-02-09T01:27:25.961Z,0
2018-02-09T01:28:26.516Z,0
2018-02-09T01:29:27.107Z,0
2018-02-09T01:30:27.700Z,0
2018-02-09T01:31:28.284Z,0
2018-02-09T01:32:28.885Z,0
2018-02-09T01:33:29.483Z,0
2018-02-09T01:34:30.080Z,0
2018-02-09T01:35:30.672Z,0
2018-02-09T01:36:31.273Z,0
2018-02-09T01:37:31.868Z,0
2018-02-09T01:38:32.453Z,0
2018-02-09T01:39:33.037Z,0
2018-02-09T01:40:33.635Z,0
2018-02-09T01:41:34.219Z,0
2018-02-09T01:42:34.819Z,0
2018-02-09T01:43:35.417Z,0
2018-02-09T01:44:36.013Z,0
2018-02-09T01:45:36.600Z,0
2018-02-09T01:46:37.198Z,0
2018-02-09T01:47:37.793Z,0
2018-02-09T01:48:38.387Z,0
2018-02-09T01:49:38.982Z,0
2018-02-09T01:50:39.579Z,0
2018-02-09T01:51:40.173Z,0
2018-02-09T01:52:40.776Z,0
2018-02-09T01:53:41.374Z,0
2018-02-09T01:54:41.965Z,0
2018-02-09T01:55:42.562Z,0
2018-02-09T01:56:43.156Z,0
2018-02-09T01:57:43.743Z,0
2018-02-09T01:58:44.328Z,0
2018-02-09T01:59:44.923Z,0
2018-02-09T02:00:45.518Z,0
2018-02-09T02:01:46.110Z,0
2018-02-09T02:02:46.704Z,0
2018-02-09T02:03:47.296Z,0
2018-02-09T02:04:47.889Z,0
2018-02-09T02:05:48.484Z,0
2018-02-09T02:06:49.069Z,0
2018-02-09T02:07:49.658Z,0
2018-02-09T02:08:50.251Z,0
2018-02-09T02:09:50.849Z,0
2018-02-09T02:10:51.445Z,0
2018-02-09T02:11:52.040Z,0
2018-02-09T02:12:52.626Z,0
2018-02-09T02:13:53.221Z,0
2018-02-09T02:14:53.816Z,0
2018-02-09T02:15:54.418Z,0
2018-02-09T02:16:55.002Z,0
2018-02-09T02:17:55.596Z,0
2018-02-09T02:18:56.187Z,0
2018-02-09T02:19:56.789Z,0
2018-02-09T02:20:57.378Z,0
2018-02-09T02:21:57.980Z,0
2018-02-09T02:22:58.575Z,0
2018-02-09T02:23:59.174Z,0
2018-02-09T02:24:59.769Z,0
2018-02-09T02:26:00.361Z,0
2018-02-09T02:27:00.947Z,0
2018-02-09T02:28:01.540Z,0
2018-02-09T02:29:02.137Z,0
2018-02-09T02:30:02.736Z,0
2018-02-09T02:31:03.315Z,0
2018-02-09T02:32:03.913Z,0
2018-02-09T02:33:04.503Z,0
2018-02-09T02:34:05.091Z,0
2018-02-09T02:35:05.697Z,0
2018-02-09T02:36:06.280Z,0
2018-02-09T02:37:06.885Z,0
2018-02-09T02:38:07.488Z,0
2018-02-09T02:39:08.078Z,0
2018-02-09T02:40:08.676Z,0
2018-02-09T02:41:09.278Z,0
2018-02-09T02:42:09.881Z,0
2018-02-09T02:43:10.488Z,0
2018-02-09T02:44:11.071Z,0
2018-02-09T02:45:11.662Z,0
2018-02-09T02:46:12.255Z,0
2018-02-09T02:47:12.847Z,0
2018-02-09T02:48:13.447Z,0
2018-02-09T02:49:14.035Z,0
2018-02-09T02:50:14.622Z,0
2018-02-09T02:51:15.222Z,0
2018-02-09T02:52:15.820Z,0
2018-02-09T02:53:16.418Z,0
2018-02-09T02:54:17.012Z,0
2018-02-09T02:55:17.603Z,0
2018-02-09T02:56:18.204Z,0
2018-02-09T02:57:18.802Z,0
2018-02-09T02:58:19.398Z,0
2018-02-09T02:59:19.991Z,0
2018-02-09T03:00:20.585Z,0
2018-02-09T03:01:21.223Z,0
2018-02-09T03:02:21.759Z,0
2018-02-09T03:03:22.357Z,0
2018-02-09T03:04:22.950Z,0
2018-02-09T03:05:23.538Z,0
2018-02-09T03:06:24.130Z,0
2018-02-09T03:07:24.723Z,0
2018-02-09T03:08:25.321Z,0
2018-02-09T03:09:25.917Z,0
2018-02-09T03:10:26.515Z,0
2018-02-09T03:11:27.106Z,0
2018-02-09T03:12:27.697Z,0
2018-02-09T03:13:28.283Z,0
2018-02-09T03:14:28.879Z,0
2018-02-09T03:15:29.480Z,0
2018-02-09T03:16:30.074Z,0
2018-02-09T03:17:30.656Z,0
2018-02-09T03:18:31.249Z,0
2018-02-09T03:19:31.847Z,0
2018-02-09T03:20:32.435Z,0
2018-02-09T03:21:33.030Z,0
2018-02-09T03:22:33.624Z,0
2018-02-09T03:23:34.217Z,0
2018-02-09T03:24:34.816Z,0
2018-02-09T03:25:35.412Z,0
2018-02-09T03:26:36.011Z,0
2018-02-09T03:27:36.593Z,0
2018-02-09T03:28:37.179Z,0
2018-02-09T03:29:37.770Z,0
2018-02-09T03:30:38.367Z,0
2018-02-09T03:31:38.958Z,0
2018-02-09T03:32:39.551Z,0
2018-02-09T03:33:40.150Z,0
2018-02-09T03:34:40.738Z,0
2018-02-09T03:35:41.331Z,0
2018-02-09T03:36:41.929Z,0
2018-02-09T03:37:42.526Z,0
2018-02-09T03:38:43.118Z,0
2018-02-09T03:39:43.760Z,0
2018-02-09T03:40:44.305Z,0
2018-02-09T03:41:44.907Z,0
2018-02-09T03:42:45.505Z,0
2018-02-09T03:43:46.107Z,0
2018-02-09T03:44:46.702Z,0
2018-02-09T03:45:47.288Z,0
2018-02-09T03:46:47.886Z,0
2018-02-09T03:47:48.488Z,0
2018-02-09T03:48:49.074Z,0
2018-02-09T03:49:49.662Z,0
2018-02-09T03:50:50.247Z,0
2018-02-09T03:51:50.836Z,0
2018-02-09T03:52:51.430Z,0
2018-02-09T03:53:52.027Z,0
2018-02-09T03:54:52.611Z,0
2018-02-09T03:55:53.209Z,0
2018-02-09T03:56:53.800Z,0
2018-02-09T03:57:54.386Z,0
2018-02-09T03:58:54.971Z,0
2018-02-09T03:59:55.566Z,0
2018-02-09T04:00:56.166Z,0
2018-02-09T04:01:56.762Z,0
2018-02-09T04:02:57.355Z,0
2018-02-09T04:03:57.936Z,0
2018-02-09T04:04:58.521Z,0
2018-02-09T04:05:59.119Z,0
2018-02-09T04:06:59.712Z,0
2018-02-09T04:08:00.305Z,0
2018-02-09T04:09:00.888Z,0
2018-02-09T04:10:01.483Z,0
2018-02-09T04:11:02.071Z,0
2018-02-09T04:12:02.673Z,0
2018-02-09T04:13:03.274Z,0
2018-02-09T04:14:03.873Z,0
2018-02-09T04:15:04.463Z,0
2018-02-09T04:16:05.063Z,0
2018-02-09T04:17:05.665Z,0
2018-02-09T04:18:06.261Z,0
2018-02-09T04:19:06.851Z,0
2018-02-09T04:20:07.448Z,0
2018-02-09T04:21:08.038Z,0
2018-02-09T04:22:08.625Z,0
2018-02-09T04:23:09.213Z,0
2018-02-09T04:24:09.811Z,0
2018-02-09T04:25:10.452Z,0
2018-02-09T04:26:11.055Z,0
2018-02-09T04:27:11.649Z,0
2018-02-09T04:28:12.253Z,0
2018-02-09T04:29:12.855Z,0
2018-02-09T04:30:13.443Z,0
2018-02-09T04:31:14.032Z,0
2018-02-09T04:32:14.626Z,0
2018-02-09T04:33:15.216Z,0
2018-02-09T04:34:15.808Z,0
2018-02-09T04:35:16.404Z,0
2018-02-09T04:36:17.000Z,0
2018-02-09T04:37:17.604Z,0
2018-02-09T04:38:18.201Z,0
2018-02-09T04:39:18.798Z,0
2018-02-09T04:40:19.393Z,0
2018-02-09T04:41:19.988Z,0
2018-02-09T04:42:20.588Z,0
2018-02-09T04:43:21.167Z,0
2018-02-09T04:44:21.761Z,0
2018-02-09T04:45:22.347Z,0
2018-02-09T04:46:22.947Z,0
2018-02-09T04:47:23.542Z,0
2018-02-09T04:48:24.141Z,0
2018-02-09T04:49:24.734Z,0
2018-02-09T04:50:25.320Z,0
2018-02-09T04:51:25.904Z,0
2018-02-09T04:52:26.505Z,0
2018-02-09T04:53:27.093Z,0
2018-02-09T04:54:27.686Z,0
2018-02-09T04:55:28.283Z,0
2018-02-09T04:56:28.877Z,0
2018-02-09T04:57:29.469Z,0
2018-02-09T04:58:30.066Z,0
2018-02-09T04:59:30.668Z,0
2018-02-09T05:00:31.271Z,0
2018-02-09T05:01:31.851Z,0
2018-02-09T05:02:32.459Z,0
2018-02-09T05:03:33.040Z,0
2018-02-09T05:04:33.635Z,0
2018-02-09T05:05:34.224Z,0
2018-02-09T05:06:34.824Z,0
2018-02-09T05:07:35.421Z,0
2018-02-09T05:08:36.005Z,0
2018-02-09T05:09:36.630Z,0
2018-02-09T05:10:37.224Z,0
2018-02-09T05:11:37.810Z,0
2018-02-09T05:12:38.397Z,0
2018-02-09T05:13:38.988Z,0
2018-02-09T05:14:39.582Z,0
2018-02-09T05:15:40.177Z,0
2018-02-09T05:16:40.769Z,0
2018-02-09T05:17:41.363Z,0
2018-02-09T05:18:41.964Z,0
2018-02-09T05:19:42.561Z,0
2018-02-09T05:20:43.156Z,0
2018-02-09T05:21:43.748Z,0
2018-02-09T05:22:44.346Z,0
2018-02-09T05:23:44.935Z,0
2018-02-09T05:24:45.522Z,0
2018-02-09T05:25:46.123Z,0
2018-02-09T05:26:46.725Z,0
2018-02-09T05:27:47.327Z,0
2018-02-09T05:28:47.918Z,0
2018-02-09T05:29:48.516Z,0
2018-02-09T05:30:49.112Z,0
2018-02-09T05:31:49.701Z,0
2018-02-09T05:32:50.302Z,0
2018-02-09T05:33:50.904Z,0
2018-02-09T05:34:51.486Z,0
2018-02-09T05:35:52.083Z,0
2018-02-09T05:36:52.680Z,0
2018-02-09T05:37:53.273Z,0
2018-02-09T05:38:53.873Z,0
2018-02-09T05:39:54.469Z,0
2018-02-09T05:40:55.057Z,0
2018-02-09T05:41:55.645Z,0
2018-02-09T05:42:56.242Z,0
2018-02-09T05:43:56.845Z,0
2018-02-09T05:44:57.430Z,0
2018-02-09T05:45:58.028Z,0
2018-02-09T05:46:58.614Z,0
2018-02-09T05:47:59.203Z,0
2018-02-09T05:48:59.795Z,0
2018-02-09T05:50:00.394Z,0
2018-02-09T05:51:00.990Z,0
2018-02-09T05:52:01.581Z,0
2018-02-09T05:53:02.173Z,0
2018-02-09T05:54:02.771Z,0
2018-02-09T05:55:03.368Z,0
2018-02-09T05:56:03.963Z,0
2018-02-09T05:57:04.561Z,0
2018-02-09T05:58:05.152Z,0
2018-02-09T05:59:05.737Z,0
2018-02-09T06:00:06.331Z,0
2018-02-09T06:01:06.931Z,0
2018-02-09T06:02:07.520Z,0
2018-02-09T06:03:08.106Z,0
2018-02-09T06:04:08.698Z,0
2018-02-09T06:05:09.295Z,0
2018-02-09T06:06:09.888Z,0
2018-02-09T06:07:10.489Z,0
2018-02-09T06:08:11.071Z,0
2018-02-09T06:09:11.662Z,0
2018-02-09T06:10:12.258Z,0
2018-02-09T06:11:12.847Z,0
2018-02-09T06:12:13.443Z,0
2018-02-09T06:13:14.025Z,0
2018-02-09T06:14:14.617Z,0
2018-02-09T06:15:15.211Z,0
2018-02-09T06:16:15.810Z,0
2018-02-09T06:17:16.461Z,0
2018-02-09T06:18:17.011Z,0
2018-02-09T06:19:17.603Z,0
2018-02-09T06:20:18.203Z,0
2018-02-09T06:21:18.793Z,4
2018-02-09T06:22:19.395Z,4
2018-02-09T06:23:19.990Z,0
2018-02-09T06:24:20.584Z,0
2018-02-09T06:25:21.167Z,4
2018-02-09T06:26:21.759Z,0
2018-02-09T06:27:22.351Z,4
2018-02-09T06:28:22.945Z,4
2018-02-09T06:29:23.541Z,8
2018-02-09T06:30:24.124Z,8
2018-02-09T06:31:24.716Z,8
2018-02-09T06:32:25.316Z,12
2018-02-09T06:33:25.909Z,16
2018-02-09T06:34:26.501Z,16
2018-02-09T06:35:27.091Z,20
2018-02-09T06:36:27.695Z,24
2018-02-09T06:37:28.284Z,28
2018-02-09T06:38:28.881Z,32
2018-02-09T06:39:29.474Z,36
2018-02-09T06:40:30.060Z,48
2018-02-09T06:41:30.664Z,56
2018-02-09T06:42:31.260Z,64
2018-02-09T06:43:31.858Z,80
2018-02-09T06:44:32.458Z,88
2018-02-09T06:45:33.061Z,100
2018-02-09T06:46:33.648Z,112
2018-02-09T06:47:34.250Z,132
2018-02-09T06:48:34.842Z,152
2018-02-09T06:49:35.437Z,180
2018-02-09T06:50:36.037Z,216
2018-02-09T06:51:36.630Z,252
2018-02-09T06:52:37.221Z,288
2018-02-09T06:53:37.830Z,324
2018-02-09T06:54:38.428Z,360
2018-02-09T06:55:39.014Z,400
2018-02-09T06:56:39.614Z,444
2018-02-09T06:57:40.217Z,492
2018-02-09T06:58:40.812Z,536
2018-02-09T06:59:41.409Z,584
2018-02-09T07:00:42.005Z,632
2018-02-09T07:01:42.602Z,684
2018-02-09T07:02:43.201Z,732
2018-02-09T07:03:43.796Z,780
2018-02-09T07:04:44.394Z,832
2018-02-09T07:05:44.980Z,888
2018-02-09T07:06:45.571Z,956
2018-02-09T07:07:46.173Z,1032
2018-02-09T07:08:46.790Z,1116
2018-02-09T07:09:47.379Z,1200
2018-02-09T07:10:47.975Z,1284
2018-02-09T07:11:48.575Z,1364
2018-02-09T07:12:49.181Z,1444
2018-02-09T07:13:49.778Z,1516
2018-02-09T07:14:50.377Z,1600
2018-02-09T07:15:50.976Z,1684
2018-02-09T07:16:51.574Z,1768
2018-02-09T07:17:52.175Z,1856
2018-02-09T07:18:52.781Z,1952
2018-02-09T07:19:53.395Z,2052
2018-02-09T07:20:54.002Z,2144
2018-02-09T07:21:54.590Z,2248
2018-02-09T07:22:55.179Z,2348
2018-02-09T07:23:55.776Z,2448
2018-02-09T07:24:56.381Z,2552
2018-02-09T07:25:56.974Z,2656
2018-02-09T07:26:57.573Z,2764
2018-02-09T07:27:58.170Z,2888
2018-02-09T07:28:58.770Z,3016
2018-02-09T07:29:59.372Z,3112
2018-02-09T07:30:59.985Z,3288
2018-02-09T07:32:00.584Z,3428
2018-02-09T07:33:01.184Z,3492
2018-02-09T07:34:01.804Z,3632
2018-02-09T07:35:02.408Z,3852
2018-02-09T07:36:03.006Z,4040
2018-02-09T07:37:03.606Z,4160
2018-02-09T07:38:04.205Z,4152
2018-02-09T07:39:04.801Z,4144
2018-02-09T07:40:05.414Z,4408
2018-02-09T07:41:06.012Z,4704
2018-02-09T07:42:06.613Z,4796
2018-02-09T07:43:07.222Z,4780
2018-02-09T07:44:07.824Z,4636
2018-02-09T07:45:08.424Z,4524
2018-02-09T07:46:09.033Z,4572
2018-02-09T07:47:09.663Z,4860
2018-02-09T07:48:10.245Z,5284
2018-02-09T07:49:10.852Z,5676
2018-02-09T07:50:11.461Z,5888
2018-02-09T07:51:12.064Z,6068
2018-02-09T07:52:12.676Z,6236
2018-02-09T07:53:13.278Z,6524
2018-02-09T07:54:13.879Z,6728
2018-02-09T07:55:14.484Z,6856
2018-02-09T07:56:15.083Z,6968
2018-02-09T07:57:15.687Z,7096
2018-02-09T07:58:16.289Z,7148
2018-02-09T07:59:16.907Z,7088
2018-02-09T08:00:17.558Z,7132
2018-02-09T08:01:18.168Z,7204
2018-02-09T08:02:18.772Z,7172
2018-02-09T08:03:19.382Z,6952
2018-02-09T08:04:19.974Z,6732
2018-02-09T08:05:20.583Z,6624
2018-02-09T08:06:21.191Z,6812
2018-02-09T08:07:21.803Z,7156
2018-02-09T08:08:22.418Z,7500
2018-02-09T08:09:23.015Z,8052
2018-02-09T08:10:23.621Z,8876
2018-02-09T08:11:24.220Z,9552
2018-02-09T08:12:24.825Z,9972
2018-02-09T08:13:25.432Z,9932
2018-02-09T08:14:26.035Z,9820
2018-02-09T08:15:26.643Z,9520
2018-02-09T08:16:27.242Z,9600
2018-02-09T08:17:27.847Z,9408
2018-02-09T08:18:28.461Z,9336
2018-02-09T08:19:29.064Z,9684
2018-02-09T08:20:29.668Z,9824
2018-02-09T08:21:30.281Z,9980
2018-02-09T08:22:30.893Z,10400
2018-02-09T08:23:31.503Z,10528
2018-02-09T08:24:32.097Z,10920
2018-02-09T08:25:32.694Z,11308
2018-02-09T08:26:33.298Z,11376
2018-02-09T08:27:33.910Z,11664
2018-02-09T08:28:34.512Z,12424
2018-02-09T08:29:35.122Z,13332
2018-02-09T08:30:35.726Z,13524
2018-02-09T08:31:36.325Z,13424
2018-02-09T08:32:36.930Z,13412
2018-02-09T08:33:37.529Z,13548
2018-02-09T08:34:38.127Z,13192
2018-02-09T08:35:38.750Z,13036
2018-02-09T08:36:39.372Z,13464
2018-02-09T08:37:39.968Z,12936
2018-02-09T08:38:40.581Z,12952
2018-02-09T08:39:41.192Z,13448
2018-02-09T08:40:41.791Z,14392
2018-02-09T08:41:42.397Z,14848
2018-02-09T08:42:43.011Z,13692
2018-02-09T08:43:43.619Z,13136
2018-02-09T08:44:44.225Z,13164
2018-02-09T08:45:44.821Z,13236
2018-02-09T08:46:45.422Z,13496
2018-02-09T08:47:46.028Z,13764
2018-02-09T08:48:46.637Z,13272
2018-02-09T08:49:47.255Z,13028
2018-02-09T08:50:47.846Z,13312
2018-02-09T08:51:48.518Z,13412
2018-02-09T08:52:49.099Z,14496
2018-02-09T08:53:49.705Z,14620
2018-02-09T08:54:50.310Z,13972
2018-02-09T08:55:50.921Z,13592
2018-02-09T08:56:51.513Z,13676
2018-02-09T08:57:52.120Z,14224
2018-02-09T08:58:52.735Z,15620
2018-02-09T08:59:53.340Z,16228
2018-02-09T09:00:53.948Z,15776
2018-02-09T09:01:54.547Z,15064
2018-02-09T09:02:55.154Z,14944
2018-02-09T09:03:55.750Z,15316
2018-02-09T09:04:56.351Z,16092
2018-02-09T09:05:56.966Z,15804
2018-02-09T09:06:57.584Z,15972
2018-02-09T09:07:58.196Z,16416
2018-02-09T09:08:58.804Z,16592
2018-02-09T09:09:59.414Z,15936
2018-02-09T09:11:00.027Z,16896
2018-02-09T09:12:00.617Z,17828
2018-02-09T09:13:01.221Z,17228
2018-02-09T09:14:01.830Z,18084
2018-02-09T09:15:02.436Z,17044
2018-02-09T09:16:03.038Z,16260
2018-02-09T09:17:03.650Z,16456
2018-02-09T09:18:04.259Z,16692
2018-02-09T09:19:04.865Z,16656
2018-02-09T09:20:05.498Z,17508
2018-02-09T09:21:06.085Z,17952
2018-02-09T09:22:06.708Z,18128
2018-02-09T09:23:07.315Z,19520
2018-02-09T09:24:07.911Z,20352
2018-02-09T09:25:08.512Z,20320
2018-02-09T09:26:09.122Z,20096
2018-02-09T09:27:09.742Z,19552
2018-02-09T09:28:10.372Z,19020
2018-02-09T09:29:10.956Z,19712
2018-02-09T09:30:11.563Z,20128
2018-02-09T09:31:12.175Z,18476
2018-02-09T09:32:12.775Z,19264
2018-02-09T09:33:13.371Z,20896
2018-02-09T09:34:13.981Z,20384
2018-02-09T09:35:14.585Z,20576
2018-02-09T09:36:15.195Z,20416
2018-02-09T09:37:15.816Z,20768
2018-02-09T09:38:16.426Z,21952
2018-02-09T09:39:17.035Z,24416
2018-02-09T09:40:17.651Z,25696
2018-02-09T09:41:18.251Z,25344
2018-02-09T09:42:18.872Z,24224
2018-02-09T09:43:19.491Z,24000
2018-02-09T09:44:20.130Z,24896
2018-02-09T09:45:20.731Z,25664
2018-02-09T09:46:21.335Z,26368
2018-02-09T09:47:21.947Z,26688
2018-02-09T09:48:22.557Z,26528
2018-02-09T09:49:23.172Z,25792
2018-02-09T09:50:23.800Z,25504
2018-02-09T09:51:24.403Z,25632
2018-02-09T09:52:25.027Z,25888
2018-02-09T09:53:25.629Z,25888
2018-02-09T09:54:26.238Z,25504
2018-02-09T09:55:26.850Z,26176
2018-02-09T09:56:27.472Z,26720
2018-02-09T09:57:28.112Z,26400
2018-02-09T09:58:28.694Z,25664
2018-02-09T09:59:29.296Z,24448
2018-02-09T10:00:29.923Z,23648
2018-02-09T10:01:30.529Z,23616
2018-02-09T10:02:31.150Z,23808
2018-02-09T10:03:31.764Z,25248
2018-02-09T10:04:32.373Z,25440
2018-02-09T10:05:32.991Z,26016
2018-02-09T10:06:33.602Z,26432
2018-02-09T10:07:34.283Z,26432
2018-02-09T10:08:34.893Z,26048
2018-02-09T10:09:35.505Z,26144
2018-02-09T10:10:36.130Z,27104
2018-02-09T10:11:36.746Z,28768
2018-02-09T10:12:37.368Z,29440
2018-02-09T10:13:37.971Z,28832
2018-02-09T10:14:38.574Z,27904
2018-02-09T10:15:39.181Z,27616
2018-02-09T10:16:39.794Z,29120
2018-02-09T10:17:40.399Z,29248
2018-02-09T10:18:41.012Z,29152
2018-02-09T10:19:41.620Z,28128
2018-02-09T10:20:42.230Z,28896
2018-02-09T10:21:42.841Z,30496
2018-02-09T10:22:43.447Z,30912
2018-02-09T10:23:44.066Z,30304
2018-02-09T10:24:44.715Z,30208
2018-02-09T10:25:45.328Z,29792
2018-02-09T10:26:45.944Z,29920
2018-02-09T10:27:46.556Z,30752
2018-02-09T10:28:47.166Z,32160
2018-02-09T10:29:47.781Z,32896
2018-02-09T10:30:48.385Z,32448
2018-02-09T10:31:48.996Z,30304
2018-02-09T10:32:49.611Z,30752
2018-02-09T10:33:50.214Z,32192
2018-02-09T10:34:50.829Z,33312
2018-02-09T10:35:51.449Z,33216
2018-02-09T10:36:52.048Z,32448
2018-02-09T10:37:52.670Z,32928
2018-02-09T10:38:53.278Z,33728
2018-02-09T10:39:53.892Z,35456
2018-02-09T10:40:54.494Z,34560
2018-02-09T10:41:55.108Z,32864
2018-02-09T10:42:55.721Z,31520
2018-02-09T10:43:56.337Z,31520
2018-02-09T10:44:56.944Z,33312
2018-02-09T10:45:57.546Z,34016
2018-02-09T10:46:58.164Z,34880
2018-02-09T10:47:58.785Z,35264
2018-02-09T10:48:59.404Z,35008
2018-02-09T10:50:00.020Z,35008
2018-02-09T10:51:00.628Z,35328
2018-02-09T10:52:01.235Z,35776
2018-02-09T10:53:01.856Z,35264
2018-02-09T10:54:02.460Z,33600
2018-02-09T10:55:03.072Z,31520
2018-02-09T10:56:03.684Z,31968
2018-02-09T10:57:04.292Z,32192
2018-02-09T10:58:04.906Z,31744
2018-02-09T10:59:05.518Z,31456
2018-02-09T11:00:06.129Z,32384
2018-02-09T11:01:06.748Z,31648
2018-02-09T11:02:07.360Z,32160
2018-02-09T11:03:07.973Z,31840
2018-02-09T11:04:08.577Z,31488
2018-02-09T11:05:09.179Z,32544
2018-02-09T11:06:09.804Z,33376
2018-02-09T11:07:10.419Z,33888
2018-02-09T11:08:11.034Z,33728
2018-02-09T11:09:11.633Z,33312
2018-02-09T11:10:12.250Z,33344
2018-02-09T11:11:12.870Z,34432
2018-02-09T11:12:13.530Z,34976
2018-02-09T11:13:14.089Z,35104
2018-02-09T11:14:14.701Z,35712
2018-02-09T11:15:15.309Z,35008
2018-02-09T11:16:15.928Z,32096
2018-02-09T11:17:16.549Z,30272
2018-02-09T11:18:17.165Z,31392
2018-02-09T11:19:17.782Z,32064
2018-02-09T11:20:18.387Z,33792
2018-02-09T11:21:19.050Z,34208
2018-02-09T11:22:19.618Z,34976
2018-02-09T11:23:20.246Z,34976
2018-02-09T11:24:20.845Z,33920
2018-02-09T11:25:21.458Z,35168
2018-02-09T11:26:22.069Z,35104
2018-02-09T11:27:22.685Z,35424
2018-02-09T11:28:23.297Z,34432
2018-02-09T11:29:23.911Z,33696
2018-02-09T11:30:24.522Z,33056
2018-02-09T11:31:25.123Z,33856
2018-02-09T11:32:25.733Z,35424
2018-02-09T11:33:26.349Z,35456
2018-02-09T11:34:26.960Z,35328
2018-02-09T11:35:27.573Z,35200
2018-02-09T11:36:28.184Z,36032
2018-02-09T11:37:28.787Z,37568
2018-02-09T11:38:29.402Z,38592
2018-02-09T11:39:30.021Z,38432
2018-02-09T11:40:30.626Z,38592
2018-02-09T11:41:31.227Z,37984
2018-02-09T11:42:31.840Z,36896
2018-02-09T11:43:32.438Z,37664
2018-02-09T11:44:33.052Z,38272
2018-02-09T11:45:33.674Z,40416
2018-02-09T11:46:34.291Z,40064
2018-02-09T11:47:34.903Z,38688
2018-02-09T11:48:35.520Z,36736
2018-02-09T11:49:36.143Z,34848
2018-02-09T11:50:36.757Z,33888
2018-02-09T11:51:37.360Z,33920
2018-02-09T11:52:37.970Z,34464
2018-02-09T11:53:38.616Z,35040
2018-02-09T11:54:39.212Z,33824
2018-02-09T11:55:39.816Z,32928
2018-02-09T11:56:40.436Z,35232
2018-02-09T11:57:41.049Z,35424
2018-02-09T11:58:41.668Z,36480
2018-02-09T11:59:42.286Z,36480
2018-02-09T12:00:42.906Z,36576
2018-02-09T12:01:43.525Z,36352
2018-02-09T12:02:44.138Z,34464
2018-02-09T12:03:44.746Z,34624
2018-02-09T12:04:45.348Z,35488
2018-02-09T12:05:45.963Z,34848
2018-02-09T12:06:46.579Z,35520
2018-02-09T12:07:47.201Z,35072
2018-02-09T12:08:47.812Z,36512
2018-02-09T12:09:48.436Z,36192
2018-02-09T12:10:49.062Z,37728
2018-02-09T12:11:49.683Z,36192
2018-02-09T12:12:50.301Z,34528
2018-02-09T12:13:50.933Z,33312
2018-02-09T12:14:51.531Z,30912
2018-02-09T12:15:52.153Z,29536
2018-02-09T12:16:52.807Z,32160
2018-02-09T12:17:53.448Z,33056
2018-02-09T12:18:54.030Z,34560
2018-02-09T12:19:54.643Z,34080
2018-02-09T12:20:55.260Z,35072
2018-02-09T12:21:55.874Z,35456
2018-02-09T12:22:56.481Z,35584
2018-02-09T12:23:57.093Z,35520
2018-02-09T12:24:57.715Z,35232
2018-02-09T12:25:58.335Z,35104
2018-02-09T12:26:58.940Z,36096
2018-02-09T12:27:59.555Z,36384
2018-02-09T12:29:00.174Z,33984
2018-02-09T12:30:00.794Z,30080
2018-02-09T12:31:01.449Z,34752
2018-02-09T12:32:02.067Z,34624
2018-02-09T12:33:02.664Z,35712
2018-02-09T12:34:03.286Z,34368
2018-02-09T12:35:03.936Z,31200
2018-02-09T12:36:04.512Z,29088
2018-02-09T12:37:05.137Z,28224
2018-02-09T12:38:05.810Z,28160
2018-02-09T12:39:06.356Z,27392
2018-02-09T12:40:06.977Z,26688
2018-02-09T12:41:07.596Z,27776
2018-02-09T12:42:08.210Z,29600
2018-02-09T12:43:08.824Z,28576
2018-02-09T12:44:09.437Z,26816
2018-02-09T12:45:10.054Z,27552
2018-02-09T12:46:10.677Z,29504
2018-02-09T12:47:11.284Z,30656
2018-02-09T12:48:11.929Z,30176
2018-02-09T12:49:12.539Z,30016
2018-02-09T12:50:13.167Z,30464
2018-02-09T12:51:13.774Z,31104
2018-02-09T12:52:14.385Z,31488
2018-02-09T12:53:14.997Z,30560
2018-02-09T12:54:15.613Z,30272
2018-02-09T12:55:16.278Z,30496
2018-02-09T12:56:16.950Z,30048
2018-02-09T12:57:17.558Z,29312
2018-02-09T12:58:18.178Z,28000
2018-02-09T12:59:18.808Z,26272
2018-02-09T13:00:19.431Z,24032
2018-02-09T13:01:20.064Z,22400
2018-02-09T13:02:20.698Z,23680
2018-02-09T13:03:21.292Z,24768
2018-02-09T13:04:21.965Z,22464
2018-02-09T13:05:22.624Z,20288
2018-02-09T13:06:23.208Z,20480
2018-02-09T13:07:23.858Z,22144
2018-02-09T13:08:24.463Z,24608
2018-02-09T13:09:25.062Z,26336
2018-02-09T13:10:25.658Z,26496
2018-02-09T13:11:26.270Z,25504
2018-02-09T13:12:26.881Z,23776
2018-02-09T13:13:27.494Z,21888
2018-02-09T13:14:28.105Z,22880
2018-02-09T13:15:28.709Z,21952
2018-02-09T13:16:29.318Z,20064
2018-02-09T13:17:29.928Z,20736
2018-02-09T13:18:30.553Z,20576
2018-02-09T13:19:31.179Z,21568
2018-02-09T13:20:31.789Z,21376
2018-02-09T13:21:32.404Z,21664
2018-02-09T13:22:33.004Z,21888
2018-02-09T13:23:33.614Z,20288
2018-02-09T13:24:34.228Z,18824
2018-02-09T13:25:34.844Z,17708
2018-02-09T13:26:35.442Z,18096
2018-02-09T13:27:36.056Z,18144
2018-02-09T13:28:36.667Z,19520
2018-02-09T13:29:37.267Z,19296
2018-02-09T13:30:37.867Z,18560
2018-02-09T13:31:38.476Z,17672
2018-02-09T13:32:39.081Z,18000
2018-02-09T13:33:39.687Z,19936
2018-02-09T13:34:40.301Z,19228
2018-02-09T13:35:40.913Z,18176
2018-02-09T13:36:41.525Z,16236
2018-02-09T13:37:42.139Z,14692
2018-02-09T13:38:42.756Z,14052
2018-02-09T13:39:43.373Z,13880
2018-02-09T13:40:43.993Z,13592
2018-02-09T13:41:44.597Z,13496
2018-02-09T13:42:45.198Z,13432
2018-02-09T13:43:45.801Z,13216
2018-02-09T13:44:46.404Z,13044
2018-02-09T13:45:47.015Z,13072
2018-02-09T13:46:47.618Z,13228
2018-02-09T13:47:48.235Z,13280
2018-02-09T13:48:48.841Z,13176
2018-02-09T13:49:49.450Z,12932
2018-02-09T13:50:50.053Z,12688
2018-02-09T13:51:50.663Z,12644
2018-02-09T13:52:51.271Z,12528
2018-02-09T13:53:51.885Z,12572
2018-02-09T13:54:52.552Z,12660
2018-02-09T13:55:53.175Z,12692
2018-02-09T13:56:53.769Z,12292